Time;durP1;ratioP1;P1;durP2;ratioP2;P2;SDS_P1;SDS_P2;PMS_P1;PMS_P2;Temp;Humidity;BMP_temperature;BMP_pressure;BME280_temperature;BME280_humidity;BME280_pressure;Samples;Min_cycle;Max_cycle;Signal;HPM_P1;HPM_P2
2023/04/11 00:00:51;;;;;;;14.03;3.13;;;8.10;76.30;;;;;;5065441;28;20037;-74
2023/04/11 00:03:18;;;;;;;16.27;3.20;;;7.90;76.50;;;;;;5059835;28;20128;-74
2023/04/11 00:05:45;;;;;;;14.47;3.10;;;7.80;76.90;;;;;;5069367;28;20045;-75
2023/04/11 00:08:11;;;;;;;14.77;3.30;;;7.80;76.90;;;;;;5048187;28;20042;-74
2023/04/11 00:10:36;;;;;;;12.80;3.53;;;7.60;76.90;;;;;;5039672;28;20041;-75
2023/04/11 00:13:02;;;;;;;11.10;2.80;;;7.50;77.00;;;;;;5059002;28;20090;-74
2023/04/11 00:15:28;;;;;;;13.83;2.90;;;7.50;76.90;;;;;;5068477;28;20119;-74
2023/04/11 00:17:54;;;;;;;13.33;3.00;;;7.40;77.10;;;;;;5043962;28;20044;-75
2023/04/11 00:20:21;;;;;;;14.40;3.13;;;7.30;77.10;;;;;;5078014;28;20123;-74
2023/04/11 00:22:46;;;;;;;13.00;2.87;;;7.30;77.20;;;;;;5082134;28;20048;-75
2023/04/11 00:25:12;;;;;;;16.13;3.50;;;7.20;77.40;;;;;;5063556;28;20045;-74
2023/04/11 00:27:38;;;;;;;12.43;3.63;;;7.20;77.50;;;;;;5052237;28;20072;-75
2023/04/11 00:30:07;;;;;;;19.83;4.00;;;7.20;77.70;;;;;;5050783;28;20041;-74
2023/04/11 00:32:33;;;;;;;14.83;3.53;;;7.20;77.70;;;;;;5067839;28;20052;-75
2023/04/11 00:34:58;;;;;;;17.80;3.97;;;7.20;77.80;;;;;;5069083;28;20067;-75
2023/04/11 00:37:24;;;;;;;14.20;3.87;;;7.10;77.70;;;;;;5056183;28;20044;-74
2023/04/11 00:39:51;;;;;;;13.60;4.10;;;7.00;77.70;;;;;;5068242;28;20044;-75
2023/04/11 00:42:18;;;;;;;21.07;4.20;;;7.00;77.70;;;;;;5051090;28;20037;-74
2023/04/11 00:44:44;;;;;;;17.77;4.50;;;7.00;77.90;;;;;;5051303;28;20378;-75
2023/04/11 00:47:10;;;;;;;22.97;5.50;;;7.00;78.00;;;;;;5051494;28;20082;-74
2023/04/11 00:49:36;;;;;;;18.83;4.53;;;7.00;78.10;;;;;;5049992;28;20048;-74
2023/04/11 00:52:02;;;;;;;17.33;5.33;;;7.00;78.10;;;;;;5069767;28;20345;-74
2023/04/11 00:54:29;;;;;;;25.80;4.87;;;7.00;78.10;;;;;;5071658;28;20048;-75
2023/04/11 00:57:00;;;;;;;22.60;5.37;;;7.00;78.10;;;;;;5025651;28;20115;-74
2023/04/11 00:59:30;;;;;;;22.95;5.32;;;7.00;78.10;;;;;;5066876;28;20445;-75
2023/04/11 01:01:57;;;;;;;22.27;4.80;;;7.00;78.20;;;;;;5060970;28;20354;-74
2023/04/11 01:04:23;;;;;;;21.63;5.80;;;7.00;78.30;;;;;;5056200;28;20075;-74
2023/04/11 01:06:53;;;;;;;31.73;6.00;;;6.90;78.30;;;;;;5056329;28;20628;-75
2023/04/11 01:09:24;;;;;;;27.20;5.97;;;6.90;78.30;;;;;;5066682;28;20063;-75
2023/04/11 01:11:50;;;;;;;24.50;5.83;;;6.90;78.40;;;;;;5069503;28;20036;-74
2023/04/11 01:14:17;;;;;;;22.30;5.70;;;6.90;78.40;;;;;;5061166;28;20098;-74
2023/04/11 01:16:46;;;;;;;26.30;5.30;;;6.90;78.40;;;;;;5052220;28;20042;-75
2023/04/11 01:19:16;;;;;;;18.60;4.67;;;6.80;78.20;;;;;;5069279;28;20044;-74
2023/04/11 01:21:43;;;;;;;26.63;4.85;;;6.80;78.00;;;;;;5064351;28;20048;-74
2023/04/11 01:24:10;;;;;;;15.30;3.30;;;6.90;77.70;;;;;;5064263;28;20395;-75
2023/04/11 01:26:36;;;;;;;14.90;3.03;;;6.90;77.40;;;;;;5058051;28;20051;-74
2023/04/11 01:29:02;;;;;;;20.57;3.40;;;6.90;77.20;;;;;;5054707;28;20550;-74
2023/04/11 01:31:28;;;;;;;15.37;3.20;;;6.90;77.20;;;;;;5071895;28;20079;-75
2023/04/11 01:33:54;;;;;;;17.93;3.23;;;6.90;77.20;;;;;;5062999;28;20515;-75
2023/04/11 01:36:20;;;;;;;26.80;4.63;;;6.90;77.20;;;;;;5060843;28;20041;-75
2023/04/11 01:38:46;;;;;;;28.27;6.10;;;6.80;77.40;;;;;;5071111;28;20106;-75
2023/04/11 01:41:13;;;;;;;27.43;5.93;;;6.80;77.60;;;;;;5072131;28;20490;-75
2023/04/11 01:43:39;;;;;;;27.83;4.77;;;6.70;77.70;;;;;;5058521;28;20047;-74
2023/04/11 01:46:05;;;;;;;19.10;4.10;;;6.70;77.60;;;;;;5063582;28;20421;-73
2023/04/11 01:48:33;;;;;;;19.33;4.27;;;6.70;77.50;;;;;;5051554;28;20056;-74
2023/04/11 01:50:58;;;;;;;19.73;3.93;;;6.80;77.60;;;;;;5078380;28;20403;-74
2023/04/11 01:53:24;;;;;;;15.93;3.20;;;6.80;77.60;;;;;;5069985;28;20048;-74
2023/04/11 01:55:59;;;;;;;14.43;2.90;;;6.80;77.50;;;;;;5064095;28;20076;-74
2023/04/11 01:58:24;;;;;;;12.30;2.63;;;6.80;77.50;;;;;;5057366;28;20079;-74
2023/04/11 02:00:50;;;;;;;11.03;2.67;;;6.80;77.70;;;;;;5052043;28;20117;-74
2023/04/11 02:03:19;;;;;;;12.10;2.40;;;6.80;77.80;;;;;;5052040;28;20052;-75
2023/04/11 02:05:48;;;;;;;13.77;2.73;;;6.80;77.80;;;;;;5077225;28;20036;-75
2023/04/11 02:08:14;;;;;;;9.93;2.17;;;6.80;77.90;;;;;;5050402;28;20045;-74
2023/04/11 02:10:39;;;;;;;8.53;1.90;;;6.80;78.00;;;;;;5064713;28;20071;-74
2023/04/11 02:13:05;;;;;;;8.77;1.73;;;6.70;78.30;;;;;;5070076;28;20140;-74
2023/04/11 02:15:31;;;;;;;12.00;2.00;;;6.70;78.30;;;;;;5081572;28;20036;-74
2023/04/11 02:17:59;;;;;;;7.93;1.93;;;6.70;78.30;;;;;;5034742;28;20497;-74
2023/04/11 02:20:24;;;;;;;5.80;1.80;;;6.70;78.30;;;;;;5070763;28;20486;-74
2023/04/11 02:22:50;;;;;;;11.77;2.20;;;6.70;78.30;;;;;;5078708;28;20414;-75
2023/04/11 02:25:16;;;;;;;6.87;1.50;;;6.70;78.60;;;;;;5073481;28;20553;-74
2023/04/11 02:27:41;;;;;;;10.40;1.93;;;6.70;78.60;;;;;;5055502;28;20044;-75
2023/04/11 02:30:07;;;;;;;9.13;1.80;;;6.70;78.70;;;;;;5074671;28;20485;-75
2023/04/11 02:32:34;;;;;;;7.20;1.60;;;6.70;78.70;;;;;;5080576;28;20131;-75
2023/04/11 02:35:00;;;;;;;7.67;1.40;;;6.70;78.70;;;;;;5076221;28;20545;-76
2023/04/11 02:37:26;;;;;;;12.70;1.90;;;6.70;78.80;;;;;;5058892;28;20424;-75
2023/04/11 02:39:53;;;;;;;6.47;1.47;;;6.70;78.80;;;;;;5064861;28;20097;-75
2023/04/11 02:42:19;;;;;;;8.77;1.97;;;6.70;78.90;;;;;;5069614;28;20462;-75
2023/04/11 02:44:45;;;;;;;6.73;1.67;;;6.70;78.90;;;;;;5083714;28;20083;-75
2023/04/11 02:47:10;;;;;;;5.60;1.53;;;6.70;79.00;;;;;;5059789;28;20414;-75
2023/04/11 02:49:36;;;;;;;6.93;1.47;;;6.70;79.00;;;;;;5079267;28;20051;-75
2023/04/11 02:52:02;;;;;;;8.77;2.30;;;6.70;79.10;;;;;;5074408;28;20045;-74
2023/04/11 02:54:28;;;;;;;10.93;2.27;;;6.70;79.10;;;;;;5062653;28;20573;-75
2023/04/11 02:56:55;;;;;;;8.63;2.50;;;6.70;79.00;;;;;;5056770;28;20159;-74
2023/04/11 02:59:21;;;;;;;6.93;2.20;;;6.70;79.10;;;;;;5078230;28;20385;-75
2023/04/11 03:01:46;;;;;;;9.77;2.30;;;6.70;79.10;;;;;;5072778;28;20041;-75
2023/04/11 03:04:12;;;;;;;10.03;3.10;;;6.70;79.20;;;;;;5077587;28;20499;-75
2023/04/11 03:06:38;;;;;;;9.50;2.67;;;6.70;79.10;;;;;;5075411;28;20036;-75
2023/04/11 03:09:03;;;;;;;8.97;2.60;;;6.70;79.10;;;;;;5073726;28;20127;-75
2023/04/11 03:11:29;;;;;;;10.93;2.77;;;6.70;79.30;;;;;;5078995;28;20052;-75
2023/04/11 03:13:55;;;;;;;10.13;2.60;;;6.70;79.40;;;;;;5071824;28;20052;-74
2023/04/11 03:16:21;;;;;;;13.03;2.80;;;6.60;79.50;;;;;;5063866;28;20048;-73
2023/04/11 03:18:47;;;;;;;16.93;3.10;;;6.70;79.60;;;;;;5057186;28;20055;-74
2023/04/11 03:21:12;;;;;;;13.33;2.73;;;6.70;79.60;;;;;;5082113;28;20044;-74
2023/04/11 03:23:38;;;;;;;16.47;3.23;;;6.70;79.50;;;;;;5071574;28;20044;-74
2023/04/11 03:26:06;;;;;;;12.80;2.53;;;6.70;79.60;;;;;;5079420;28;20386;-74
2023/04/11 03:28:32;;;;;;;13.37;3.03;;;6.70;79.40;;;;;;5063031;28;20056;-74
2023/04/11 03:30:58;;;;;;;15.67;3.53;;;6.70;79.40;;;;;;5065834;28;20475;-74
2023/04/11 03:33:24;;;;;;;12.90;2.67;;;6.70;79.40;;;;;;5079338;28;20040;-75
2023/04/11 03:35:50;;;;;;;14.73;2.90;;;6.70;79.40;;;;;;5051020;28;20430;-75
2023/04/11 03:38:15;;;;;;;14.67;3.70;;;6.70;79.30;;;;;;5054528;28;20080;-75
2023/04/11 03:40:41;;;;;;;12.97;3.50;;;6.70;79.30;;;;;;5090366;28;20378;-75
2023/04/11 03:43:07;;;;;;;14.73;3.40;;;6.70;79.10;;;;;;5073682;28;20084;-75
2023/04/11 03:45:32;;;;;;;13.77;3.50;;;6.80;79.10;;;;;;5078005;28;20139;-75
2023/04/11 03:47:58;;;;;;;17.43;3.67;;;6.80;79.00;;;;;;5054783;28;20045;-75
2023/04/11 03:50:24;;;;;;;15.40;3.93;;;6.80;79.00;;;;;;5067040;28;20052;-75
2023/04/11 03:52:49;;;;;;;14.37;3.63;;;6.80;78.90;;;;;;5056536;28;20355;-74
2023/04/11 03:55:15;;;;;;;15.53;4.00;;;6.80;78.90;;;;;;5086249;28;20550;-74
2023/04/11 03:57:41;;;;;;;12.47;4.00;;;6.90;78.70;;;;;;5052838;28;20397;-74
2023/04/11 04:00:07;;;;;;;17.30;3.50;;;6.90;78.50;;;;;;5076798;28;20664;-75
2023/04/11 04:02:33;;;;;;;15.57;3.93;;;6.90;78.20;;;;;;5060110;28;20106;-75
2023/04/11 04:04:59;;;;;;;14.27;4.07;;;7.00;78.20;;;;;;5062513;28;20048;-75
2023/04/11 04:07:25;;;;;;;18.30;4.47;;;7.00;78.00;;;;;;5065182;28;20040;-75
2023/04/11 04:09:51;;;;;;;21.00;4.03;;;7.00;77.70;;;;;;5068858;28;20072;-74
2023/04/11 04:12:18;;;;;;;15.37;3.87;;;7.00;77.70;;;;;;5067678;28;20035;-74
2023/04/11 04:14:44;;;;;;;20.23;3.90;;;7.00;77.50;;;;;;5060056;28;20094;-75
2023/04/11 04:17:12;;;;;;;14.70;3.67;;;7.00;77.60;;;;;;5048191;28;20040;-74
2023/04/11 04:19:38;;;;;;;16.03;3.70;;;7.00;77.50;;;;;;5064306;28;20048;-74
2023/04/11 04:22:04;;;;;;;17.33;4.00;;;7.00;77.60;;;;;;5060132;28;20037;-74
2023/04/11 04:24:30;;;;;;;10.80;3.00;;;7.00;77.20;;;;;;5062180;28;20044;-75
2023/04/11 04:26:59;;;;;;;12.57;3.10;;;7.00;76.90;;;;;;5052989;28;20394;-75
2023/04/11 04:29:32;;;;;;;17.97;3.60;;;7.00;77.10;;;;;;5049915;28;20037;-75
2023/04/11 04:32:00;;;;;;;13.97;4.00;;;7.00;77.10;;;;;;5069397;28;20052;-74
2023/04/11 04:34:28;;;;;;;14.73;3.90;;;7.00;77.00;;;;;;5067577;28;20033;-74
2023/04/11 04:36:58;;;;;;;16.77;3.77;;;7.00;77.30;;;;;;5056994;28;20059;-74
2023/04/11 04:39:24;;;;;;;17.83;3.80;;;7.00;77.20;;;;;;5048909;28;20072;-74
2023/04/11 04:41:57;;;;;;;14.60;3.23;;;6.90;76.50;;;;;;5074168;28;20058;-74
2023/04/11 04:44:26;;;;;;;14.63;4.00;;;6.90;76.70;;;;;;5064605;28;20368;-75
2023/04/11 04:46:53;;;;;;;13.87;4.37;;;6.90;77.00;;;;;;5053658;28;20035;-74
2023/04/11 04:49:18;;;;;;;18.80;4.70;;;6.90;77.20;;;;;;5069243;28;20144;-74
2023/04/11 04:51:44;;;;;;;13.97;4.23;;;6.90;77.10;;;;;;5058216;28;20449;-74
2023/04/11 04:54:10;;;;;;;20.63;4.03;;;6.80;77.10;;;;;;5049518;28;20468;-74
2023/04/11 04:56:36;;;;;;;17.37;4.10;;;6.90;76.70;;;;;;5040840;28;20451;-75
2023/04/11 04:59:01;;;;;;;16.23;4.87;;;6.90;76.90;;;;;;5049893;28;20041;-74
2023/04/11 05:01:27;;;;;;;21.40;4.33;;;6.90;77.20;;;;;;5060959;28;20095;-75
2023/04/11 05:03:59;;;;;;;9.73;2.53;;;6.80;77.50;;;;;;5058098;28;20049;-74
2023/04/11 05:06:27;;;;;;;8.60;2.20;;;6.70;77.00;;;;;;5034503;28;20501;-74
2023/04/11 05:08:55;;;;;;;8.93;1.80;;;6.50;77.00;;;;;;5045212;28;20381;-74
2023/04/11 05:11:21;;;;;;;11.33;2.73;;;6.30;77.10;;;;;;5053601;28;20048;-74
2023/04/11 05:13:46;;;;;;;8.37;2.10;;;6.20;77.60;;;;;;5048253;28;20110;-75
2023/04/11 05:16:12;;;;;;;9.00;1.63;;;6.10;77.80;;;;;;5045913;28;20068;-74
2023/04/11 05:18:37;;;;;;;4.23;1.10;;;6.00;77.60;;;;;;5046305;28;20504;-73
2023/04/11 05:21:04;;;;;;;4.93;1.70;;;5.90;77.20;;;;;;5054806;28;20116;-74
2023/04/11 05:23:30;;;;;;;6.67;2.30;;;5.90;77.10;;;;;;5013277;28;20180;-74
2023/04/11 05:25:55;;;;;;;10.00;3.00;;;5.90;77.40;;;;;;5046885;28;20057;-75
2023/04/11 05:28:21;;;;;;;11.13;3.80;;;5.90;78.00;;;;;;5022204;28;20064;-73
2023/04/11 05:30:47;;;;;;;17.60;4.57;;;5.80;78.70;;;;;;5043593;28;20120;-75
2023/04/11 05:33:14;;;;;;;13.93;4.20;;;5.90;78.90;;;;;;5053326;28;20045;-74
2023/04/11 05:35:40;;;;;;;19.60;5.00;;;5.90;79.00;;;;;;5054749;28;20088;-73
2023/04/11 05:38:05;;;;;;;16.30;4.80;;;5.90;79.00;;;;;;5036710;28;20080;-74
2023/04/11 05:40:31;;;;;;;21.07;5.17;;;6.00;79.20;;;;;;5041909;28;20111;-75
2023/04/11 05:42:57;;;;;;;21.50;5.43;;;6.10;79.30;;;;;;5055731;28;20052;-75
2023/04/11 05:45:23;;;;;;;21.20;4.80;;;6.10;79.30;;;;;;5041153;28;20086;-74
2023/04/11 05:47:48;;;;;;;20.23;5.60;;;6.20;79.30;;;;;;5038440;28;20136;-74
2023/04/11 05:50:14;;;;;;;18.93;5.20;;;6.30;79.20;;;;;;5076491;28;20094;-74
2023/04/11 05:52:40;;;;;;;22.77;5.30;;;6.30;79.00;;;;;;5056089;28;20508;-74
2023/04/11 05:55:06;;;;;;;24.57;5.60;;;6.40;78.90;;;;;;5072816;28;20110;-74
2023/04/11 05:57:32;;;;;;;19.60;5.57;;;6.50;78.70;;;;;;5043851;28;20064;-74
2023/04/11 06:00:00;;;;;;;25.73;5.07;;;6.60;78.70;;;;;;5077800;28;20115;-74
2023/04/11 06:02:27;;;;;;;20.43;4.83;;;6.70;78.40;;;;;;5064981;28;20133;-74
2023/04/11 06:04:52;;;;;;;15.67;4.80;;;6.70;78.50;;;;;;5074718;28;20048;-75
2023/04/11 06:07:18;;;;;;;19.00;5.17;;;6.80;78.00;;;;;;5050425;28;20052;-74
2023/04/11 06:09:44;;;;;;;22.37;4.70;;;6.80;77.90;;;;;;5062674;28;20062;-75
2023/04/11 06:12:10;;;;;;;17.17;4.53;;;6.80;77.90;;;;;;5060890;28;20121;-74
2023/04/11 06:14:35;;;;;;;23.90;5.40;;;6.80;78.10;;;;;;5075188;28;20059;-74
2023/04/11 06:17:01;;;;;;;22.73;5.97;;;6.80;77.60;;;;;;5042613;28;21029;-74
2023/04/11 06:19:27;;;;;;;21.63;5.03;;;6.80;77.80;;;;;;5055155;28;20547;-75
2023/04/11 06:21:52;;;;;;;23.13;5.40;;;6.80;78.10;;;;;;5081199;28;20064;-74
2023/04/11 06:24:37;;;;;;;18.40;4.63;;;6.90;77.50;;;;;;5082941;28;20044;-74
2023/04/11 06:27:03;;;;;;;18.93;4.87;;;6.90;77.50;;;;;;5051260;28;20050;-74
2023/04/11 06:29:29;;;;;;;24.67;4.77;;;6.90;77.20;;;;;;5064352;28;20143;-75
2023/04/11 06:31:56;;;;;;;24.37;4.73;;;7.00;76.90;;;;;;5049877;28;20558;-74
2023/04/11 06:34:22;;;;;;;24.73;4.50;;;7.00;76.70;;;;;;5050329;28;20119;-74
2023/04/11 06:36:48;;;;;;;23.30;5.03;;;7.00;77.00;;;;;;5053851;28;20047;-75
2023/04/11 06:39:17;;;;;;;24.90;4.23;;;7.00;76.80;;;;;;5062339;28;20504;-74
2023/04/11 06:41:43;;;;;;;23.93;5.07;;;7.00;77.00;;;;;;5073179;28;20105;-74
2023/04/11 06:44:09;;;;;;;23.50;5.20;;;7.00;77.10;;;;;;5060656;28;20044;-75
2023/04/11 06:46:35;;;;;;;21.43;4.80;;;6.90;77.10;;;;;;5056076;28;20186;-74
2023/04/11 06:49:02;;;;;;;22.03;5.03;;;6.80;76.80;;;;;;5072597;28;20426;-74
2023/04/11 06:51:28;;;;;;;16.17;4.50;;;6.80;76.90;;;;;;5045792;28;20080;-74
2023/04/11 06:53:54;;;;;;;26.80;4.80;;;6.80;76.80;;;;;;5069473;28;20056;-74
2023/04/11 06:56:20;;;;;;;19.13;4.00;;;6.90;76.70;;;;;;5041550;28;20048;-75
2023/04/11 06:58:46;;;;;;;19.40;4.20;;;6.90;75.90;;;;;;5061998;28;20081;-74
2023/04/11 07:01:13;;;;;;;19.83;4.37;;;7.00;75.50;;;;;;5058839;28;20040;-74
2023/04/11 07:03:39;;;;;;;20.33;4.30;;;7.00;75.60;;;;;;5072640;28;20048;-75
2023/04/11 07:06:06;;;;;;;21.23;4.63;;;7.10;75.40;;;;;;5073652;28;20051;-72
2023/04/11 07:08:32;;;;;;;16.50;4.43;;;7.20;75.40;;;;;;5060723;28;20048;-74
2023/04/11 07:10:58;;;;;;;22.70;4.37;;;7.30;75.20;;;;;;5065023;28;20046;-74
2023/04/11 07:13:24;;;;;;;20.33;4.10;;;7.30;74.60;;;;;;5034835;28;20040;-75
2023/04/11 07:15:49;;;;;;;18.60;3.93;;;7.40;74.50;;;;;;5052105;28;20462;-75
2023/04/11 07:18:15;;;;;;;20.17;3.63;;;7.40;74.80;;;;;;5053147;28;20469;-74
2023/04/11 07:20:41;;;;;;;17.40;4.10;;;7.50;74.30;;;;;;5069033;28;20048;-74
2023/04/11 07:23:07;;;;;;;19.10;3.97;;;7.50;74.30;;;;;;5069369;28;20491;-74
2023/04/11 07:25:32;;;;;;;15.60;3.90;;;7.50;73.80;;;;;;5064852;28;20058;-75
2023/04/11 07:28:07;;;;;;;19.87;3.80;;;7.60;73.70;;;;;;5052993;28;20055;-76
2023/04/11 07:30:37;;;;;;;23.97;3.73;;;7.60;73.40;;;;;;5041911;28;20080;-76
2023/04/11 07:33:03;;;;;;;16.50;4.23;;;7.80;73.10;;;;;;5069378;28;20499;-74
2023/04/11 07:35:30;;;;;;;16.00;3.17;;;7.80;72.80;;;;;;5069196;28;20046;-75
2023/04/11 07:37:57;;;;;;;18.03;3.53;;;7.80;72.50;;;;;;5025767;28;20116;-75
2023/04/11 07:40:23;;;;;;;25.43;3.87;;;8.00;72.80;;;;;;5061964;28;20079;-75
2023/04/11 07:42:48;;;;;;;22.33;4.23;;;8.10;73.30;;;;;;5051674;28;20066;-75
2023/04/11 07:45:14;;;;;;;25.03;4.37;;;8.20;72.60;;;;;;5070166;28;20127;-74
2023/04/11 07:47:40;;;;;;;16.40;3.60;;;8.20;71.90;;;;;;5053031;28;20060;-74
2023/04/11 07:50:06;;;;;;;15.90;3.40;;;8.20;71.40;;;;;;5053451;28;20460;-75
2023/04/11 07:52:32;;;;;;;16.30;3.00;;;8.10;71.40;;;;;;5049173;28;20131;-74
2023/04/11 07:54:57;;;;;;;21.43;4.20;;;8.00;72.30;;;;;;5050142;28;20080;-74
2023/04/11 07:57:23;;;;;;;11.10;3.10;;;8.00;72.40;;;;;;5033086;28;20049;-74
2023/04/11 07:59:49;;;;;;;13.97;3.23;;;8.00;71.40;;;;;;5049094;28;20057;-74
2023/04/11 08:02:14;;;;;;;19.97;3.57;;;8.00;71.80;;;;;;5048468;28;20045;-74
2023/04/11 08:04:40;;;;;;;15.20;3.60;;;8.00;71.70;;;;;;5050138;28;20398;-74
2023/04/11 08:07:06;;;;;;;14.03;3.30;;;8.00;71.90;;;;;;5027667;28;20116;-75
2023/04/11 08:09:33;;;;;;;17.57;3.83;;;8.30;70.50;;;;;;5051064;28;20037;-75
2023/04/11 08:12:00;;;;;;;17.77;3.67;;;8.50;70.50;;;;;;5014769;28;20819;-74
2023/04/11 08:14:26;;;;;;;22.40;4.40;;;8.60;71.00;;;;;;5031194;28;20397;-74
2023/04/11 08:16:52;;;;;;;19.83;4.27;;;8.60;71.00;;;;;;5031816;28;20123;-75
2023/04/11 08:19:18;;;;;;;18.37;3.77;;;8.70;70.30;;;;;;5035997;28;20561;-74
2023/04/11 08:21:44;;;;;;;19.67;3.90;;;8.60;69.50;;;;;;5046999;28;21742;-73
2023/04/11 08:24:09;;;;;;;16.57;3.83;;;8.60;69.90;;;;;;5040181;28;20040;-74
2023/04/11 08:26:35;;;;;;;18.03;3.87;;;8.50;70.70;;;;;;5024528;28;20052;-74
2023/04/11 08:29:02;;;;;;;18.80;3.60;;;8.40;69.60;;;;;;5025190;28;20049;-75
2023/04/11 08:31:28;;;;;;;15.13;2.83;;;8.40;70.00;;;;;;5023682;28;20092;-74
2023/04/11 08:33:55;;;;;;;12.57;3.27;;;8.40;69.40;;;;;;5041299;28;20071;-74
2023/04/11 08:36:21;;;;;;;12.67;3.00;;;8.60;70.00;;;;;;5025307;28;20284;-73
2023/04/11 08:38:46;;;;;;;14.87;3.10;;;8.90;69.00;;;;;;5018427;28;20048;-74
2023/04/11 08:41:13;;;;;;;11.03;2.67;;;9.00;68.20;;;;;;5045716;28;20535;-75
2023/04/11 08:43:39;;;;;;;13.43;2.90;;;9.10;67.40;;;;;;5035435;28;20247;-74
2023/04/11 08:46:08;;;;;;;14.43;3.40;;;9.30;67.30;;;;;;5039403;28;20414;-73
2023/04/11 08:48:34;;;;;;;16.73;3.30;;;9.60;67.80;;;;;;5051306;28;20431;-75
2023/04/11 08:51:00;;;;;;;13.40;2.73;;;9.80;66.90;;;;;;5048719;28;20051;-74
2023/04/11 08:53:27;;;;;;;14.23;2.87;;;9.60;67.10;;;;;;5047383;28;20045;-75
2023/04/11 08:55:53;;;;;;;19.37;3.30;;;9.40;67.10;;;;;;5046150;28;20422;-75
2023/04/11 08:58:19;;;;;;;11.43;2.97;;;9.10;67.50;;;;;;5017943;28;20052;-74
2023/04/11 09:00:45;;;;;;;16.80;3.10;;;8.90;67.80;;;;;;5052302;28;20126;-74
2023/04/11 09:03:11;;;;;;;11.83;3.47;;;9.20;67.40;;;;;;5035809;28;20483;-74
2023/04/11 09:05:43;;;;;;;16.27;3.20;;;9.40;67.60;;;;;;5053410;28;20447;-76
2023/04/11 09:08:10;;;;;;;11.07;2.40;;;9.40;67.40;;;;;;5014771;28;20051;-75
2023/04/11 09:10:38;;;;;;;14.63;2.23;;;9.20;69.00;;;;;;5031486;28;20045;-75
2023/04/11 09:13:25;;;;;;;5.17;1.23;;;8.50;69.50;;;;;;5032404;28;20075;-73
2023/04/11 09:16:04;;;;;;;8.10;1.50;;;7.90;70.30;;;;;;5054537;28;20136;-74
2023/04/11 09:18:30;;;;;;;10.47;2.37;;;7.50;71.10;;;;;;5016983;28;20045;-74
2023/04/11 09:21:04;;;;;;;16.30;3.20;;;7.30;72.00;;;;;;5048847;28;20104;-75
2023/04/11 09:23:30;;;;;;;17.33;3.40;;;7.30;73.20;;;;;;5047046;28;20045;-74
2023/04/11 09:25:56;;;;;;;23.47;3.97;;;7.30;73.20;;;;;;5047644;28;20056;-74
2023/04/11 09:28:22;;;;;;;15.00;3.20;;;7.40;73.50;;;;;;5033752;28;20048;-74
2023/04/11 09:30:50;;;;;;;12.43;2.83;;;7.40;73.10;;;;;;5040007;28;20040;-74
2023/04/11 09:33:22;;;;;;;16.23;3.30;;;7.70;73.80;;;;;;5033721;28;20049;-74
2023/04/11 09:35:49;;;;;;;;;;;8.10;73.00;;;;;;5035694;28;20052;-74
2023/04/11 09:38:33;;;;;;;18.87;3.97;;;8.60;71.80;;;;;;5017935;28;19988;-74
2023/04/11 09:41:01;;;;;;;15.80;3.63;;;9.40;70.40;;;;;;5052568;28;20504;-74
2023/04/11 09:43:27;;;;;;;21.37;3.87;;;10.20;70.00;;;;;;5017360;28;20045;-74
2023/04/11 09:46:09;;;;;;;15.57;3.47;;;10.40;69.60;;;;;;5052499;28;20052;-74
2023/04/11 09:48:37;;;;;;;16.23;3.30;;;10.20;69.40;;;;;;5029264;28;20056;-74
2023/04/11 09:51:06;;;;;;;21.00;3.27;;;10.10;70.30;;;;;;5056922;28;20080;-75
2023/04/11 09:53:36;;;;;;;8.13;1.83;;;9.90;70.40;;;;;;5033609;28;20091;-75
2023/04/11 09:56:03;;;;;;;8.47;2.00;;;9.50;68.50;;;;;;5059020;28;20087;-75
2023/04/11 09:58:30;;;;;;;9.30;2.17;;;9.00;67.60;;;;;;5034955;28;20573;-74
2023/04/11 10:00:58;;;;;;;12.23;1.90;;;8.50;68.90;;;;;;5034526;28;20045;-74
2023/04/11 10:03:25;;;;;;;8.53;2.10;;;8.20;69.90;;;;;;5051193;28;20427;-74
2023/04/11 10:05:55;;;;;;;11.83;2.17;;;8.00;71.00;;;;;;5052424;28;20094;-74
2023/04/11 10:08:31;;;;;;;13.40;2.40;;;8.00;71.70;;;;;;5035716;28;20045;-74
2023/04/11 10:11:02;;;;;;;7.33;1.83;;;8.10;72.00;;;;;;5033632;28;20061;-74
2023/04/11 10:13:34;;;;;;;9.90;2.22;;;8.40;70.40;;;;;;5031891;28;20049;-76
2023/04/11 10:16:11;;;;;;;13.00;2.57;;;8.80;70.90;;;;;;5050958;28;20052;-74
2023/04/11 10:18:46;;;;;;;11.60;2.63;;;9.20;70.50;;;;;;5025675;28;20511;-75
2023/04/11 10:21:33;;;;;;;13.87;3.07;;;9.30;69.40;;;;;;5051139;28;20505;-74
2023/04/11 10:24:12;;;;;;;14.57;3.20;;;9.30;69.50;;;;;;5050969;28;20105;-74
2023/04/11 10:26:53;;;;;;;9.70;2.00;;;9.10;70.40;;;;;;5036984;28;20131;-74
2023/04/11 10:29:39;;;;;;;14.60;3.00;;;8.70;70.30;;;;;;5031912;28;20103;-74
2023/04/11 10:32:24;;;;;;;13.30;2.73;;;8.20;70.80;;;;;;5033187;28;20095;-74
2023/04/11 10:34:53;;;;;;;12.60;2.47;;;7.80;71.50;;;;;;5051628;28;20057;-75
2023/04/11 10:37:33;;;;;;;8.00;2.20;;;7.50;71.90;;;;;;5030418;28;20046;-74
2023/04/11 10:39:59;;;;;;;14.40;2.57;;;7.20;72.20;;;;;;5011603;28;20499;-74
2023/04/11 10:42:45;;;;;;;10.80;2.37;;;7.00;72.50;;;;;;5032465;28;20084;-74
2023/04/11 10:45:28;;;;;;;15.03;2.60;;;6.80;72.90;;;;;;5051870;28;20045;-74
2023/04/11 10:48:10;;;;;;;9.80;2.00;;;6.80;73.50;;;;;;5020105;28;20132;-74
2023/04/11 10:50:43;;;;;;;9.17;2.20;;;6.90;73.40;;;;;;5025545;28;20056;-74
2023/04/11 10:53:32;;;;;;;14.87;2.50;;;7.00;73.50;;;;;;5049668;28;20098;-74
2023/04/11 10:55:58;;;;;;;11.53;2.37;;;7.00;73.50;;;;;;5033243;28;20056;-74
2023/04/11 10:58:42;;;;;;;9.87;2.60;;;7.10;73.70;;;;;;5034430;28;20395;-74
2023/04/11 11:01:13;;;;;;;13.67;2.90;;;7.00;73.50;;;;;;5033399;28;20049;-74
2023/04/11 11:03:39;;;;;;;15.13;3.35;;;7.00;73.70;;;;;;5032282;28;20582;-74
2023/04/11 11:06:07;;;;;;;20.27;4.10;;;7.00;74.00;;;;;;5049378;28;20049;-74
2023/04/11 11:08:41;;;;;;;19.17;4.00;;;7.20;74.20;;;;;;5022324;28;20363;-74
2023/04/11 11:11:09;;;;;;;19.33;3.80;;;7.80;74.90;;;;;;5050903;28;20049;-74
2023/04/11 11:13:40;;;;;;;18.00;3.50;;;8.40;73.60;;;;;;5048943;28;20557;-74
2023/04/11 11:16:07;;;;;;;12.88;3.33;;;9.20;72.40;;;;;;5028495;28;20399;-72
2023/04/11 11:18:33;;;;;;;17.30;3.20;;;9.80;71.60;;;;;;5036603;28;20581;-75
2023/04/11 11:20:59;;;;;;;10.20;2.87;;;10.00;69.40;;;;;;5032953;28;20106;-74
2023/04/11 11:23:28;;;;;;;13.77;3.20;;;10.00;69.70;;;;;;5049282;28;20041;-74
2023/04/11 11:25:56;;;;;;;15.23;3.13;;;10.20;70.00;;;;;;5050282;28;20041;-74
2023/04/11 11:28:22;;;;;;;13.43;2.97;;;10.10;68.20;;;;;;5015721;28;20055;-74
2023/04/11 11:30:53;;;;;;;19.17;3.40;;;9.40;70.20;;;;;;5050008;28;20049;-74
2023/04/11 11:33:20;;;;;;;18.77;3.92;;;8.90;71.40;;;;;;5031861;28;20479;-74
2023/04/11 11:35:59;;;;;;;10.97;3.27;;;8.50;71.90;;;;;;5032067;28;20095;-74
2023/04/11 11:38:28;;;;;;;13.07;2.83;;;8.40;71.60;;;;;;4999003;28;20084;-74
2023/04/11 11:40:54;;;;;;;12.60;3.07;;;8.20;71.50;;;;;;5029831;28;20037;-74
2023/04/11 11:43:20;;;;;;;11.00;2.03;;;8.10;72.40;;;;;;5047771;28;20098;-74
2023/04/11 11:45:46;;;;;;;9.97;2.13;;;8.50;72.70;;;;;;5032467;28;20128;-75
2023/04/11 11:48:23;;;;;;;14.53;2.37;;;8.60;70.90;;;;;;5041563;28;20070;-74
2023/04/11 11:50:59;;;;;;;16.43;3.07;;;8.60;71.10;;;;;;5048294;28;20061;-75
2023/04/11 11:53:25;;;;;;;14.93;3.40;;;8.90;72.00;;;;;;5030455;28;20094;-74
2023/04/11 11:55:52;;;;;;;22.77;3.60;;;9.40;71.80;;;;;;5032374;28;20517;-75
2023/04/11 11:58:18;;;;;;;18.67;4.00;;;9.50;70.30;;;;;;5015660;28;20044;-75
2023/04/11 12:00:48;;;;;;;14.03;2.40;;;9.40;70.90;;;;;;5029805;28;20404;-74
2023/04/11 12:03:21;;;;;;;11.07;2.43;;;8.60;70.00;;;;;;5040491;28;20063;-74
2023/04/11 12:05:47;;;;;;;11.90;2.60;;;8.00;70.40;;;;;;5031282;28;20045;-75
2023/04/11 12:08:13;;;;;;;11.53;2.70;;;7.80;71.80;;;;;;5015234;28;20472;-74
2023/04/11 12:10:41;;;;;;;15.97;3.23;;;7.80;72.70;;;;;;5049738;28;20344;-74
2023/04/11 12:13:26;;;;;;;20.10;3.53;;;8.00;74.10;;;;;;5031095;28;20045;-74
2023/04/11 12:15:54;;;;;;;16.87;3.90;;;8.40;73.30;;;;;;5031492;28;20113;-74
2023/04/11 12:18:24;;;;;;;18.07;4.40;;;9.00;72.90;;;;;;5032918;28;20045;-75
2023/04/11 12:20:50;;;;;;;16.27;4.23;;;9.40;70.80;;;;;;5032091;28;20063;-75
2023/04/11 12:23:17;;;;;;;15.83;3.23;;;9.40;70.10;;;;;;5048391;28;20044;-74
2023/04/11 12:25:42;;;;;;;17.93;2.73;;;9.20;69.30;;;;;;5031957;28;20048;-74
2023/04/11 12:28:09;;;;;;;7.63;2.27;;;9.00;69.10;;;;;;5032028;28;20049;-74
2023/04/11 12:30:35;;;;;;;7.20;1.60;;;8.70;68.60;;;;;;5031659;28;20049;-74
2023/04/11 12:33:01;;;;;;;9.00;1.80;;;8.50;68.70;;;;;;5047899;28;20059;-74
2023/04/11 12:35:28;;;;;;;9.57;2.27;;;8.50;68.90;;;;;;5049355;28;20045;-74
2023/04/11 12:37:53;;;;;;;13.23;2.40;;;8.50;69.50;;;;;;5016210;28;20083;-75
2023/04/11 12:40:19;;;;;;;13.63;2.90;;;8.60;68.30;;;;;;5049122;28;20499;-74
2023/04/11 12:42:46;;;;;;;9.37;2.80;;;8.80;69.50;;;;;;5048488;28;20554;-74
2023/04/11 12:45:13;;;;;;;10.93;2.47;;;8.80;69.50;;;;;;5049216;28;20083;-74
2023/04/11 12:47:39;;;;;;;14.97;2.70;;;8.60;69.60;;;;;;5019690;28;20434;-75
2023/04/11 12:50:06;;;;;;;12.93;2.03;;;8.60;70.50;;;;;;5035842;28;20085;-75